createdAt,value
2023-03-10T00:04:55.033Z,10.67
2023-03-10T00:09:56.665Z,10.70
2023-03-10T00:14:58.176Z,10.72
2023-03-10T00:19:59.725Z,10.76
2023-03-10T00:25:01.218Z,10.79
2023-03-10T00:30:03.402Z,10.79
2023-03-10T00:35:06.434Z,10.81
2023-03-10T00:40:18.351Z,10.80
2023-03-10T00:45:19.938Z,10.79
2023-03-10T00:50:22.844Z,10.79
2023-03-10T00:55:24.340Z,10.79
2023-03-10T01:00:26.061Z,10.75
2023-03-10T01:05:29.042Z,10.73
2023-03-10T01:10:30.600Z,10.75
2023-03-10T01:15:32.176Z,10.71
2023-03-10T01:20:35.157Z,10.73
2023-03-10T01:25:36.658Z,10.71
2023-03-10T01:30:39.016Z,10.73
2023-03-10T01:35:40.647Z,10.72
2023-03-10T01:40:49.128Z,10.72
2023-03-10T01:45:50.510Z,10.69
2023-03-10T01:50:55.651Z,10.69
2023-03-10T01:56:02.670Z,10.68
2023-03-10T02:01:07.406Z,10.66
2023-03-10T02:06:14.120Z,10.63
2023-03-10T02:11:16.520Z,10.61
2023-03-10T02:16:18.506Z,10.60
2023-03-10T02:21:44.350Z,10.59
2023-03-10T02:26:55.083Z,10.56
2023-03-10T02:31:58.572Z,10.57
2023-03-10T02:37:00.199Z,10.55
2023-03-10T02:42:01.964Z,10.54
2023-03-10T02:47:03.783Z,10.53
2023-03-10T02:52:09.890Z,10.52
2023-03-10T02:57:11.511Z,10.50
2023-03-10T03:02:13.183Z,10.52
2023-03-10T03:07:14.822Z,10.52
2023-03-10T03:12:16.396Z,10.52
2023-03-10T03:17:18.043Z,10.47
2023-03-10T03:22:19.636Z,10.46
2023-03-10T03:27:21.199Z,10.43
2023-03-10T03:32:23.508Z,10.43
2023-03-10T03:37:25.484Z,10.36
2023-03-10T03:42:27.259Z,10.30
2023-03-10T03:47:29.902Z,10.26
2023-03-10T03:52:32.817Z,10.25
2023-03-10T03:57:35.764Z,10.24
2023-03-10T04:02:37.852Z,10.24
2023-03-10T04:07:41.696Z,10.25
2023-03-10T04:12:45.028Z,10.16
2023-03-10T04:17:46.704Z,10.13
2023-03-10T04:22:48.386Z,10.04
2023-03-10T04:27:50.057Z,9.98
2023-03-10T04:32:52.708Z,9.94
2023-03-10T04:37:57.780Z,9.85
2023-03-10T04:43:00.808Z,9.85
2023-03-10T04:48:04.066Z,9.86
2023-03-10T04:53:05.649Z,9.83
2023-03-10T04:58:07.962Z,9.86
2023-03-10T05:03:10.179Z,9.85
2023-03-10T05:08:11.988Z,9.57
2023-03-10T05:13:14.093Z,9.46
2023-03-10T05:18:17.017Z,9.40
2023-03-10T05:23:18.617Z,9.33
2023-03-10T05:28:20.196Z,9.28
2023-03-10T05:33:22.306Z,9.32
2023-03-10T05:38:25.712Z,9.27
2023-03-10T05:43:27.595Z,9.21
2023-03-10T05:48:29.682Z,9.38
2023-03-10T05:53:34.308Z,9.35
2023-03-10T05:58:37.319Z,9.30
2023-03-10T06:03:39.675Z,9.31
2023-03-10T06:08:42.972Z,9.35
2023-03-10T06:13:44.534Z,9.45
2023-03-10T06:18:46.150Z,9.34
2023-03-10T06:23:47.797Z,9.32
2023-03-10T06:28:49.389Z,9.61
2023-03-10T06:33:51.974Z,9.65
2023-03-10T06:38:54.528Z,9.72
2023-03-10T06:43:56.092Z,9.77
2023-03-10T06:48:57.575Z,9.83
2023-03-10T06:53:59.066Z,9.86
2023-03-10T06:59:00.664Z,9.94
2023-03-10T07:04:02.415Z,9.96
2023-03-10T07:09:04.513Z,9.98
2023-03-10T07:14:06.245Z,10.04
2023-03-10T07:19:07.785Z,10.10
2023-03-10T07:24:09.290Z,10.15
2023-03-10T07:29:11.141Z,10.22
2023-03-10T07:34:12.735Z,10.25
2023-03-10T07:39:15.091Z,10.29
2023-03-10T07:44:16.649Z,10.23
2023-03-10T07:49:18.901Z,10.34
2023-03-10T07:54:21.995Z,10.45
2023-03-10T07:59:23.566Z,10.49
2023-03-10T08:04:25.258Z,10.54
2023-03-10T08:09:27.096Z,10.67
2023-03-10T08:14:30.146Z,10.80
2023-03-10T08:19:31.663Z,10.95
2023-03-10T08:24:33.301Z,11.10
2023-03-10T08:29:35.330Z,11.16
2023-03-10T08:34:37.218Z,11.24
2023-03-10T08:39:39.014Z,11.39
2023-03-10T08:44:41.525Z,11.45
2023-03-10T08:49:45.699Z,11.51
2023-03-10T08:54:48.550Z,11.54
2023-03-10T08:59:51.552Z,11.58
2023-03-10T09:04:53.331Z,11.54
2023-03-10T09:09:54.893Z,11.60
2023-03-10T09:14:56.463Z,11.67
2023-03-10T09:19:57.973Z,11.77
2023-03-10T09:25:00.756Z,11.74
2023-03-10T09:30:02.782Z,11.68
2023-03-10T09:35:05.382Z,11.84
2023-03-10T09:40:10.151Z,11.93
2023-03-10T09:45:26.842Z,12.09
2023-03-10T09:50:34.140Z,12.18
2023-03-10T09:55:47.854Z,12.29
2023-03-10T10:00:49.872Z,12.39
2023-03-10T10:05:55.331Z,12.41
2023-03-10T10:10:59.617Z,12.54
2023-03-10T10:16:34.308Z,12.72
2023-03-10T10:21:52.663Z,12.50
2023-03-10T10:26:54.249Z,12.62
2023-03-10T10:32:13.499Z,12.73
2023-03-10T10:37:27.053Z,12.86
2023-03-10T10:42:31.666Z,12.80
2023-03-10T10:47:49.154Z,12.79
2023-03-10T10:52:53.729Z,12.60
2023-03-10T10:58:04.322Z,12.32
2023-03-10T11:03:39.362Z,12.65
2023-03-10T11:08:43.077Z,12.62
2023-03-10T11:14:17.232Z,12.83
2023-03-10T11:19:35.293Z,12.85
2023-03-10T11:24:54.020Z,12.99
2023-03-10T11:30:02.733Z,12.66
2023-03-10T11:35:29.546Z,12.70
2023-03-10T11:40:48.602Z,12.62
2023-03-10T11:45:54.190Z,12.77
2023-03-10T11:51:00.816Z,12.87
2023-03-10T11:56:03.527Z,12.84
2023-03-10T12:01:07.860Z,12.77
2023-03-10T12:06:16.063Z,12.88
2023-03-10T12:11:23.564Z,13.00
2023-03-10T12:16:35.869Z,12.97
2023-03-10T12:21:37.728Z,12.96
2023-03-10T12:26:39.306Z,12.93
2023-03-10T12:31:41.175Z,13.12
2023-03-10T12:36:46.481Z,13.28
2023-03-10T12:41:50.185Z,13.51
2023-03-10T12:47:10.730Z,13.62
2023-03-10T12:52:29.350Z,13.63
2023-03-10T12:57:39.143Z,13.62
2023-03-10T13:02:59.507Z,13.60
2023-03-10T13:08:23.037Z,13.51
2023-03-10T13:13:30.374Z,13.48
2023-03-10T13:18:33.604Z,13.45
2023-03-10T13:23:35.710Z,13.44
2023-03-10T13:28:38.092Z,13.35
2023-03-10T13:33:52.234Z,13.46
2023-03-10T13:38:56.381Z,13.45
2023-03-10T13:43:58.157Z,13.35
2023-03-10T13:49:06.418Z,13.27
2023-03-10T13:54:45.588Z,13.25
2023-03-10T13:59:48.325Z,13.18
2023-03-10T14:04:52.346Z,13.14
2023-03-10T14:10:07.703Z,13.08
2023-03-10T14:15:21.980Z,13.13
2023-03-10T14:20:44.149Z,13.14
2023-03-10T14:25:51.743Z,13.03
2023-03-10T14:30:53.519Z,12.84
2023-03-10T14:35:55.076Z,12.61
2023-03-10T14:40:56.779Z,12.66
2023-03-10T14:46:01.416Z,12.76
2023-03-10T14:51:03.465Z,12.60
2023-03-10T14:56:05.505Z,12.54
2023-03-10T15:01:07.252Z,12.34
2023-03-10T15:06:18.485Z,12.01
2023-03-10T15:11:35.711Z,11.98
2023-03-10T15:16:38.412Z,12.02
2023-03-10T15:21:39.958Z,11.99
2023-03-10T15:26:42.041Z,11.99
2023-03-10T15:31:43.742Z,11.93
2023-03-10T15:36:45.328Z,11.90
2023-03-10T15:41:46.935Z,11.92
2023-03-10T15:46:50.883Z,11.85
2023-03-10T15:51:52.550Z,11.71
2023-03-10T15:56:54.051Z,11.57
2023-03-10T16:01:55.943Z,11.45
2023-03-10T16:06:57.572Z,11.44
2023-03-10T16:11:59.095Z,11.21
2023-03-10T16:17:00.857Z,11.01
2023-03-10T16:22:02.482Z,10.79
2023-03-10T16:27:04.185Z,10.72
2023-03-10T16:32:08.261Z,10.57
2023-03-10T16:37:09.771Z,10.61
2023-03-10T16:42:11.290Z,10.61
2023-03-10T16:47:12.946Z,10.59
2023-03-10T16:52:14.497Z,10.53
2023-03-10T16:57:16.007Z,10.32
2023-03-10T17:02:17.667Z,10.26
2023-03-10T17:07:19.286Z,10.15
2023-03-10T17:12:20.947Z,10.07
2023-03-10T17:17:22.730Z,10.07
2023-03-10T17:22:24.537Z,10.11
2023-03-10T17:27:26.184Z,10.03
2023-03-10T17:32:28.259Z,9.94
2023-03-10T17:37:30.024Z,9.97
2023-03-10T17:42:32.561Z,9.84
2023-03-10T17:47:34.345Z,9.63
2023-03-10T17:52:35.882Z,9.52
2023-03-10T17:57:39.682Z,9.36
2023-03-10T18:02:42.283Z,9.33
2023-03-10T18:07:43.930Z,9.09
2023-03-10T18:12:45.542Z,8.90
2023-03-10T18:17:47.179Z,8.91
2023-03-10T18:22:48.746Z,8.71
2023-03-10T18:27:50.279Z,8.79
2023-03-10T18:32:51.958Z,8.48
2023-03-10T18:37:54.437Z,8.35
2023-03-10T18:42:56.231Z,8.24
2023-03-10T18:47:57.902Z,8.21
2023-03-10T18:52:59.496Z,7.96
2023-03-10T18:58:01.040Z,7.90
2023-03-10T19:03:02.736Z,7.93
2023-03-10T19:08:04.369Z,7.90
2023-03-10T19:13:07.386Z,7.86
2023-03-10T19:18:09.127Z,7.88
2023-03-10T19:23:10.811Z,7.74
2023-03-10T19:28:12.357Z,7.64
2023-03-10T19:33:13.905Z,7.67
2023-03-10T19:38:15.473Z,7.64
2023-03-10T19:43:16.987Z,7.61
2023-03-10T19:48:18.590Z,7.51
2023-03-10T19:53:21.345Z,7.51
2023-03-10T19:58:23.784Z,7.48
2023-03-10T20:03:27.521Z,7.42
2023-03-10T20:08:29.101Z,7.35
2023-03-10T20:13:31.996Z,7.44
2023-03-10T20:18:33.898Z,7.36
2023-03-10T20:23:35.638Z,7.41
2023-03-10T20:28:37.391Z,7.34
2023-03-10T20:33:38.956Z,7.20
2023-03-10T20:38:44.663Z,7.22
2023-03-10T20:43:46.516Z,7.30
2023-03-10T20:48:50.549Z,7.28
2023-03-10T20:53:52.407Z,7.25
2023-03-10T20:58:59.238Z,7.20
2023-03-10T21:04:01.055Z,7.03
2023-03-10T21:09:05.824Z,6.99
2023-03-10T21:14:07.543Z,6.88
2023-03-10T21:19:10.294Z,6.87
2023-03-10T21:24:12.109Z,6.93
2023-03-10T21:29:13.722Z,6.85
2023-03-10T21:34:15.239Z,6.79
2023-03-10T21:39:17.365Z,6.75
2023-03-10T21:44:18.948Z,6.66
2023-03-10T21:49:20.541Z,6.46
2023-03-10T21:54:22.180Z,6.23
2023-03-10T21:59:23.810Z,5.97
2023-03-10T22:04:25.411Z,6.10
2023-03-10T22:09:28.370Z,5.84
2023-03-10T22:14:29.952Z,5.33
2023-03-10T22:19:31.667Z,4.96
2023-03-10T22:24:33.453Z,4.97
2023-03-10T22:29:35.308Z,4.90
2023-03-10T22:34:36.880Z,4.59
2023-03-10T22:39:38.525Z,4.63
2023-03-10T22:44:40.381Z,4.64
2023-03-10T22:49:42.077Z,4.59
2023-03-10T22:54:43.803Z,4.54
2023-03-10T22:59:45.369Z,4.68
2023-03-10T23:04:46.947Z,4.52
2023-03-10T23:09:48.531Z,4.37
2023-03-10T23:14:50.445Z,4.23
2023-03-10T23:19:55.899Z,4.22
2023-03-10T23:24:57.553Z,4.37
2023-03-10T23:29:59.093Z,4.15
2023-03-10T23:35:00.661Z,4.07
2023-03-10T23:40:02.485Z,4.08
2023-03-10T23:45:09.830Z,4.02
2023-03-10T23:50:24.650Z,3.99
2023-03-10T23:55:30.188Z,4.08
